Time;durP1;ratioP1;P1;durP2;ratioP2;P2;SDS_P1;SDS_P2;PMS_P1;PMS_P2;Temp;Humidity;BMP_temperature;BMP_pressure;BME280_temperature;BME280_humidity;BME280_pressure;Samples;Min_cycle;Max_cycle;Signal;HPM_P1;HPM_P2
2023/10/18 00:01:26;;;;;;;9.07;3.40;;;6.40;1.00;;;;;;4983621;28;20407;-67
2023/10/18 00:03:56;;;;;;;10.40;3.43;;;6.30;1.00;;;;;;4986342;28;20894;-67
2023/10/18 00:06:23;;;;;;;7.80;2.90;;;6.20;1.00;;;;;;4986851;28;20413;-67
2023/10/18 00:08:57;;;;;;;6.10;2.30;;;6.30;1.00;;;;;;4990980;28;20418;-67
2023/10/18 00:11:24;;;;;;;8.00;4.03;;;6.30;1.00;;;;;;4984821;28;20415;-67
2023/10/18 00:13:50;;;;;;;7.73;3.40;;;6.30;1.00;;;;;;4984788;28;20491;-67
2023/10/18 00:16:16;;;;;;;7.03;2.80;;;6.40;1.00;;;;;;4986556;28;20451;-68
2023/10/18 00:18:42;;;;;;;6.50;2.72;;;6.30;1.00;;;;;;4984143;28;20445;-67
2023/10/18 00:21:08;;;;;;;8.38;2.92;;;6.30;1.00;;;;;;4984116;28;20889;-67
2023/10/18 00:23:34;;;;;;;6.30;2.10;;;6.30;1.00;;;;;;4983590;28;20415;-67
2023/10/18 00:26:07;;;;;;;8.50;3.00;;;6.30;1.00;;;;;;4985371;28;20443;-67
2023/10/18 00:28:36;;;;;;;8.40;3.08;;;6.20;1.00;;;;;;4984939;28;20410;-67
2023/10/18 00:31:18;;;;;;;7.78;2.47;;;6.10;1.00;;;;;;4979097;28;20832;-67
2023/10/18 00:33:44;;;;;;;7.82;3.13;;;6.10;1.00;;;;;;4986247;28;20432;-67
2023/10/18 00:36:11;;;;;;;8.45;1.90;;;6.00;1.00;;;;;;4982667;28;20429;-67
2023/10/18 00:38:40;;;;;;;8.50;3.27;;;6.00;1.00;;;;;;4984674;28;20776;-67
2023/10/18 00:41:09;;;;;;;7.22;2.33;;;5.90;1.00;;;;;;4980500;28;20397;-67
2023/10/18 00:43:36;;;;;;;9.25;3.08;;;5.90;1.00;;;;;;4982840;28;20508;-66
2023/10/18 00:46:03;;;;;;;6.22;3.20;;;5.90;1.00;;;;;;4990385;28;20738;-67
2023/10/18 00:48:28;;;;;;;7.95;3.22;;;5.90;1.00;;;;;;4989751;28;20510;-67
2023/10/18 00:50:56;;;;;;;7.90;3.40;;;6.00;1.00;;;;;;4991800;28;20410;-67
2023/10/18 00:53:24;;;;;;;7.55;3.33;;;6.00;1.00;;;;;;4991298;28;20478;-67
2023/10/18 00:55:57;;;;;;;7.70;3.15;;;6.00;1.00;;;;;;4991146;28;20525;-67
2023/10/18 00:58:23;;;;;;;8.77;4.03;;;6.00;1.00;;;;;;4991080;28;20430;-67
2023/10/18 01:00:51;;;;;;;5.10;1.77;;;5.90;1.00;;;;;;4990794;28;20433;-67
2023/10/18 01:03:29;;;;;;;9.87;3.60;;;6.00;1.00;;;;;;4989573;28;20783;-67
2023/10/18 01:06:20;;;;;;;9.30;3.30;;;5.90;1.00;;;;;;4991558;28;20406;-67
2023/10/18 01:08:47;;;;;;;8.77;3.33;;;5.90;1.00;;;;;;4990852;28;20725;-67
2023/10/18 01:11:14;;;;;;;8.47;3.00;;;6.00;1.00;;;;;;4990690;28;20403;-67
2023/10/18 01:13:43;;;;;;;9.37;3.23;;;6.10;1.00;;;;;;4990983;28;20438;-67
2023/10/18 01:16:31;;;;;;;8.20;3.13;;;6.10;1.00;;;;;;4991355;28;20742;-67
2023/10/18 01:18:56;;;;;;;6.65;3.13;;;6.30;1.00;;;;;;4990860;28;20438;-66
2023/10/18 01:21:22;;;;;;;8.20;3.53;;;6.30;1.00;;;;;;4991026;28;20509;-67
2023/10/18 01:23:49;;;;;;;6.45;2.60;;;6.30;1.00;;;;;;4991092;28;20397;-67
2023/10/18 01:26:16;;;;;;;10.30;3.63;;;6.30;1.00;;;;;;4990985;28;20873;-67
2023/10/18 01:28:42;;;;;;;6.82;3.20;;;6.30;1.00;;;;;;4991262;28;20402;-67
2023/10/18 01:31:12;;;;;;;6.80;2.83;;;6.20;1.00;;;;;;4990649;28;20399;-67
2023/10/18 01:33:40;;;;;;;8.95;3.72;;;6.20;1.00;;;;;;4990147;28;20406;-67
2023/10/18 01:36:06;;;;;;;8.70;3.72;;;6.30;1.00;;;;;;4971246;28;20452;-67
2023/10/18 01:38:35;;;;;;;11.52;4.10;;;6.30;1.00;;;;;;4970964;28;20443;-68
2023/10/18 01:41:08;;;;;;;8.10;3.33;;;6.30;1.00;;;;;;4971999;28;20486;-67
2023/10/18 01:43:36;;;;;;;9.32;4.20;;;6.30;1.00;;;;;;4971540;28;20395;-67
2023/10/18 01:46:06;;;;;;;7.55;3.28;;;6.40;1.00;;;;;;4984857;28;20406;-67
2023/10/18 01:48:33;;;;;;;8.18;3.40;;;6.50;1.00;;;;;;4990815;28;20402;-67
2023/10/18 01:51:06;;;;;;;7.28;3.38;;;6.50;1.00;;;;;;4991152;28;20407;-67
2023/10/18 01:53:32;;;;;;;7.75;2.85;;;6.50;1.00;;;;;;4990585;28;20395;-67
2023/10/18 01:56:01;;;;;;;8.98;4.05;;;6.40;1.00;;;;;;4989768;28;20494;-67
2023/10/18 01:58:27;;;;;;;9.33;3.87;;;6.50;1.00;;;;;;4990269;28;20803;-67
2023/10/18 02:00:56;;;;;;;11.10;3.70;;;6.40;1.00;;;;;;4989379;28;20489;-67
2023/10/18 02:03:22;;;;;;;8.07;3.57;;;6.50;1.00;;;;;;4988223;28;20406;-67
2023/10/18 02:05:48;;;;;;;9.35;3.40;;;6.40;1.00;;;;;;4987996;28;20509;-67
2023/10/18 02:08:15;;;;;;;8.95;3.92;;;6.40;1.00;;;;;;4989445;28;20557;-67
2023/10/18 02:10:42;;;;;;;9.88;3.42;;;6.20;1.00;;;;;;4989481;28;20418;-67
2023/10/18 02:13:10;;;;;;;7.63;3.33;;;6.10;1.00;;;;;;4989636;28;20430;-67
2023/10/18 02:15:39;;;;;;;7.63;2.95;;;6.10;1.00;;;;;;4989090;28;20489;-68
2023/10/18 02:18:05;;;;;;;8.07;3.72;;;6.10;1.00;;;;;;5005080;28;20418;-67
2023/10/18 02:20:31;;;;;;;8.95;2.75;;;6.00;1.00;;;;;;4990109;28;20757;-67
2023/10/18 02:22:59;;;;;;;8.20;3.00;;;5.90;1.00;;;;;;4989929;28;20406;-67
2023/10/18 02:28:08;;;;;;;7.68;3.38;;;6.00;1.00;;;;;;4989453;28;20889;-67
2023/10/18 02:30:36;;;;;;;7.90;4.33;;;5.80;1.00;;;;;;4991999;28;20417;-67
2023/10/18 02:33:02;;;;;;;6.45;3.00;;;5.70;1.00;;;;;;4977193;28;20416;-66
2023/10/18 02:35:28;;;;;;;14.77;2.60;;;5.60;1.00;;;;;;4992515;28;20437;-67
2023/10/18 02:37:53;;;;;;;8.03;2.83;;;5.50;1.00;;;;;;4992516;28;20919;-67
2023/10/18 02:40:31;;;;;;;9.70;4.10;;;5.40;1.00;;;;;;4992527;28;20399;-67
2023/10/18 02:42:58;;;;;;;10.40;3.00;;;5.40;1.00;;;;;;4993625;28;20434;-67
2023/10/18 02:45:24;;;;;;;7.80;2.97;;;5.30;1.00;;;;;;4993613;28;20414;-67
2023/10/18 02:47:51;;;;;;;8.43;2.38;;;5.30;1.00;;;;;;4993495;28;20465;-67
2023/10/18 02:50:18;;;;;;;7.75;2.35;;;5.40;1.00;;;;;;4994034;28;20876;-67
2023/10/18 02:52:46;;;;;;;11.02;3.70;;;5.40;1.00;;;;;;4992271;28;20869;-67
2023/10/18 02:55:18;;;;;;;9.05;3.88;;;5.50;1.00;;;;;;4993573;28;20721;-67
2023/10/18 02:57:46;;;;;;;8.95;2.60;;;5.50;1.00;;;;;;4993626;28;20399;-67
2023/10/18 03:00:14;;;;;;;6.68;3.83;;;5.70;1.00;;;;;;4992763;28;20845;-67
2023/10/18 03:02:39;;;;;;;8.52;3.22;;;5.80;1.00;;;;;;4993686;28;20393;-66
2023/10/18 03:05:06;;;;;;;5.97;2.42;;;6.00;1.00;;;;;;4991795;28;20399;-67
2023/10/18 03:07:34;;;;;;;7.78;2.60;;;6.00;1.00;;;;;;4978034;28;20404;-66
2023/10/18 03:10:11;;;;;;;12.63;3.50;;;6.00;1.00;;;;;;4993393;28;20912;-66
2023/10/18 03:12:37;;;;;;;11.52;5.40;;;5.90;1.00;;;;;;4991995;28;20414;-67
2023/10/18 03:15:11;;;;;;;9.57;2.83;;;5.80;1.00;;;;;;4984860;28;20413;-67
2023/10/18 03:17:37;;;;;;;8.27;3.97;;;5.90;1.00;;;;;;4993384;28;20410;-67
2023/10/18 03:20:37;;;;;;;7.32;3.17;;;5.80;1.00;;;;;;4993633;28;20861;-66
2023/10/18 03:22:55;;;;;;;11.32;3.10;;;5.70;1.00;;;;;;4993909;28;20509;-66
2023/10/18 03:25:27;;;;;;;7.50;2.33;;;5.80;1.00;;;;;;4992492;28;20936;-66
2023/10/18 03:28:00;;;;;;;7.07;3.20;;;6.00;1.00;;;;;;4992402;28;20465;-66
2023/10/18 03:30:41;;;;;;;10.35;3.47;;;6.10;1.00;;;;;;4991441;28;20481;-66
2023/10/18 03:33:07;;;;;;;8.30;3.42;;;6.00;1.00;;;;;;4989906;28;20434;-68
2023/10/18 03:35:38;;;;;;;8.47;3.27;;;6.00;1.00;;;;;;4985109;28;20411;-67
2023/10/18 03:38:07;;;;;;;8.85;3.22;;;6.10;1.00;;;;;;4982858;28;20942;-67
2023/10/18 03:40:36;;;;;;;8.95;2.92;;;6.20;1.00;;;;;;4982746;28;20402;-67
2023/10/18 03:43:09;;;;;;;12.80;4.70;;;6.20;1.00;;;;;;4987154;28;20966;-67
2023/10/18 03:48:26;;;;;;;11.60;3.83;;;6.20;1.00;;;;;;4973696;28;20378;-66
2023/10/18 03:50:55;;;;;;;7.68;3.13;;;6.10;1.00;;;;;;4974227;28;20400;-67
2023/10/18 03:53:21;;;;;;;10.25;4.22;;;6.00;1.00;;;;;;4972512;28;20483;-67
2023/10/18 03:55:49;;;;;;;8.07;3.30;;;5.90;1.00;;;;;;4989695;28;20835;-67
2023/10/18 03:58:22;;;;;;;7.07;3.05;;;5.90;1.00;;;;;;4990378;28;20441;-67
2023/10/18 04:00:48;;;;;;;9.25;3.83;;;6.00;1.00;;;;;;4991937;28;20505;-67
2023/10/18 04:03:16;;;;;;;9.00;3.75;;;6.00;1.00;;;;;;4992262;28;20497;-67
2023/10/18 04:05:45;;;;;;;8.48;4.25;;;6.10;1.00;;;;;;4991929;28;20413;-67
2023/10/18 04:08:16;;;;;;;8.27;3.40;;;6.10;1.00;;;;;;4976204;28;20414;-67
2023/10/18 04:10:46;;;;;;;7.57;3.65;;;6.10;1.00;;;;;;4987553;28;20422;-67
2023/10/18 04:13:12;;;;;;;8.00;3.05;;;6.00;1.00;;;;;;4988033;28;20563;-67
2023/10/18 04:15:39;;;;;;;8.60;3.17;;;5.90;1.00;;;;;;4990765;28;20507;-67
2023/10/18 04:20:34;;;;;;;9.32;3.38;;;5.90;1.00;;;;;;4990399;28;20422;-66
2023/10/18 04:23:02;;;;;;;12.60;3.63;;;5.90;1.00;;;;;;4990659;28;20419;-67
2023/10/18 04:25:29;;;;;;;11.13;4.78;;;5.90;1.00;;;;;;4982116;28;20406;-67
2023/10/18 04:27:59;;;;;;;7.30;2.95;;;5.90;1.00;;;;;;4990307;28;20421;-67
2023/10/18 04:30:32;;;;;;;9.38;3.75;;;5.90;1.00;;;;;;4990854;28;20446;-67
2023/10/18 04:33:12;;;;;;;8.82;3.53;;;5.90;1.00;;;;;;4990860;28;20429;-66
2023/10/18 04:35:44;;;;;;;7.50;3.40;;;5.90;1.00;;;;;;4990070;28;20425;-66
2023/10/18 04:38:24;;;;;;;7.93;3.10;;;5.90;1.00;;;;;;4989219;28;20450;-66
2023/10/18 04:43:28;;;;;;;10.23;3.55;;;6.00;1.00;;;;;;4989970;28;20758;-67
2023/10/18 04:45:57;;;;;;;13.75;3.60;;;6.00;1.00;;;;;;4990549;28;20790;-66
2023/10/18 04:51:07;;;;;;;7.95;3.33;;;5.90;1.00;;;;;;4989989;28;20422;-67
2023/10/18 04:53:33;;;;;;;8.85;3.35;;;5.80;1.00;;;;;;4990567;28;20893;-67
2023/10/18 04:56:03;;;;;;;10.73;3.60;;;5.90;1.00;;;;;;4981456;28;20442;-67
2023/10/18 04:58:29;;;;;;;9.50;2.67;;;5.80;1.00;;;;;;4989058;28;20500;-68
2023/10/18 05:01:01;;;;;;;10.73;3.90;;;5.80;1.00;;;;;;4990430;28;20481;-68
2023/10/18 05:03:32;;;;;;;9.85;4.13;;;5.70;1.00;;;;;;4989398;28;20410;-67
2023/10/18 05:05:58;;;;;;;9.35;4.22;;;5.70;1.00;;;;;;4989685;28;20410;-67
2023/10/18 05:08:23;;;;;;;11.75;3.30;;;5.70;1.00;;;;;;4989656;28;20825;-67
2023/10/18 05:10:52;;;;;;;13.80;4.40;;;5.70;1.00;;;;;;4990313;28;20481;-67
2023/10/18 05:13:19;;;;;;;7.87;3.33;;;5.80;1.00;;;;;;4988729;28;20516;-67
2023/10/18 05:15:45;;;;;;;6.40;3.27;;;5.80;1.00;;;;;;4994710;28;20454;-67
2023/10/18 05:18:16;;;;;;;10.50;4.10;;;5.80;1.00;;;;;;4990037;28;20441;-66
2023/10/18 05:20:46;;;;;;;7.82;3.88;;;5.70;1.00;;;;;;4989182;28;20409;-67
2023/10/18 05:23:27;;;;;;;8.05;3.13;;;5.70;1.00;;;;;;4990361;28;20462;-66
2023/10/18 05:26:03;;;;;;;7.85;3.75;;;5.70;1.00;;;;;;4986412;28;20410;-67
2023/10/18 05:28:42;;;;;;;11.17;3.90;;;5.60;1.00;;;;;;4991036;28;20485;-67
2023/10/18 05:38:48;;;;;;;10.95;4.40;;;5.60;1.00;;;;;;4989119;28;20562;-67
2023/10/18 05:44:00;;;;;;;14.45;4.70;;;5.70;1.00;;;;;;4989271;28;20497;-67
2023/10/18 05:46:31;;;;;;;8.70;3.47;;;5.60;1.00;;;;;;4989607;28;20409;-67
2023/10/18 05:48:57;;;;;;;7.90;3.47;;;5.60;1.00;;;;;;4989380;28;20398;-67
2023/10/18 05:51:26;;;;;;;10.40;4.30;;;5.70;1.00;;;;;;4983068;28;20768;-67
2023/10/18 05:54:05;;;;;;;7.10;3.35;;;5.60;1.00;;;;;;4988392;28;20398;-67
2023/10/18 05:56:32;;;;;;;8.90;3.22;;;5.70;1.00;;;;;;4975667;28;20429;-67
2023/10/18 06:01:51;;;;;;;9.57;4.20;;;5.50;1.00;;;;;;4977580;28;20500;-66
2023/10/18 06:07:10;;;;;;;10.85;4.22;;;5.70;1.00;;;;;;4987581;28;20424;-66
2023/10/18 06:09:57;;;;;;;8.73;3.30;;;5.80;1.00;;;;;;4987722;28;20482;-70
2023/10/18 06:12:27;;;;;;;10.70;3.80;;;5.90;1.00;;;;;;4980560;28;20558;-70
2023/10/18 06:14:53;;;;;;;9.05;3.97;;;6.10;1.00;;;;;;4985426;28;20513;-71
2023/10/18 06:17:46;;;;;;;7.80;3.47;;;6.20;1.00;;;;;;4986686;28;20493;-70
2023/10/18 06:20:27;;;;;;;11.95;4.68;;;6.20;1.00;;;;;;4988193;28;20420;-70
2023/10/18 06:26:29;;;;;;;8.60;4.03;;;6.40;1.00;;;;;;4976580;28;20410;-70
2023/10/18 06:29:11;;;;;;;10.43;4.28;;;6.60;1.00;;;;;;4990031;28;20593;-70
2023/10/18 06:31:43;;;;;;;11.18;4.18;;;6.60;1.00;;;;;;4987638;28;20519;-70
2023/10/18 06:34:18;;;;;;;9.13;3.65;;;6.70;1.00;;;;;;4987216;28;20395;-70
2023/10/18 06:36:47;;;;;;;9.23;3.45;;;6.70;1.00;;;;;;4985781;28;20806;-70
2023/10/18 06:39:26;;;;;;;11.10;4.13;;;6.80;1.00;;;;;;4988724;28;20468;-70
2023/10/18 06:41:54;;;;;;;13.45;4.70;;;6.80;1.00;;;;;;4989702;28;20409;-70
2023/10/18 06:44:19;;;;;;;11.50;4.07;;;7.00;1.00;;;;;;4969272;28;20440;-70
2023/10/18 06:46:47;;;;;;;10.93;5.43;;;7.10;1.00;;;;;;4974381;28;20925;-70
2023/10/18 06:49:13;;;;;;;12.00;5.80;;;7.30;1.00;;;;;;4990185;28;20391;-71
2023/10/18 06:51:43;;;;;;;11.10;5.40;;;7.50;1.00;;;;;;4988504;28;20406;-70
2023/10/18 06:54:14;;;;;;;12.77;4.93;;;7.80;99.90;;;;;;4990677;28;20417;-70
2023/10/18 06:56:45;;;;;;;12.48;5.18;;;8.00;99.90;;;;;;4990430;28;20394;-70
2023/10/18 06:59:11;;;;;;;12.02;4.90;;;8.20;99.90;;;;;;4989312;28;20430;-71
2023/10/18 07:01:54;;;;;;;20.05;5.88;;;8.50;1.00;;;;;;4989042;28;20516;-70
2023/10/18 07:04:34;;;;;;;9.50;4.28;;;8.70;1.00;;;;;;4987032;28;20379;-70
2023/10/18 07:07:00;;;;;;;11.95;4.40;;;8.80;56.00;;;;;;4987133;28;20426;-70
2023/10/18 07:09:28;;;;;;;13.18;5.13;;;8.80;80.80;;;;;;4988869;28;20417;-70
2023/10/18 07:12:03;;;;;;;8.70;4.70;;;8.80;1.00;;;;;;4989244;28;20429;-70
2023/10/18 07:14:30;;;;;;;9.40;4.45;;;8.70;1.00;;;;;;4984958;28;20438;-70
2023/10/18 07:16:56;;;;;;;10.27;4.50;;;8.70;99.90;;;;;;4988149;28;20411;-70
2023/10/18 07:19:26;;;;;;;8.60;3.80;;;8.60;1.00;;;;;;4986201;28;20426;-71
2023/10/18 07:21:53;;;;;;;12.63;4.40;;;8.60;99.90;;;;;;4989103;28;20395;-70
2023/10/18 07:24:20;;;;;;;10.50;5.20;;;8.60;1.00;;;;;;4991788;28;20418;-70
2023/10/18 07:26:47;;;;;;;11.73;4.53;;;8.60;99.90;;;;;;4992855;28;20418;-70
2023/10/18 07:29:14;;;;;;;10.57;4.47;;;8.50;99.90;;;;;;4989339;28;20449;-68
2023/10/18 07:31:42;;;;;;;8.20;3.45;;;8.40;99.90;;;;;;4992620;28;20415;-67
2023/10/18 07:34:08;;;;;;;9.83;4.73;;;8.30;1.00;;;;;;4992776;28;20457;-67
2023/10/18 07:36:38;;;;;;;13.48;5.45;;;8.20;1.00;;;;;;4993471;28;20390;-67
2023/10/18 07:39:04;;;;;;;10.45;4.95;;;8.20;1.00;;;;;;4993628;28;20556;-67
2023/10/18 07:41:36;;;;;;;7.38;3.78;;;8.10;1.00;;;;;;4993228;28;20386;-67
2023/10/18 07:44:05;;;;;;;10.90;4.13;;;8.10;8.00;;;;;;4993271;28;20418;-68
2023/10/18 07:46:34;;;;;;;12.77;4.90;;;8.10;99.90;;;;;;4993358;28;20754;-67
2023/10/18 07:49:11;;;;;;;10.85;6.18;;;8.20;99.90;;;;;;4989992;28;20406;-68
2023/10/18 07:51:43;;;;;;;10.15;5.13;;;8.30;92.00;;;;;;4990395;28;20410;-67
2023/10/18 07:54:10;;;;;;;11.90;4.37;;;8.40;1.00;;;;;;4992062;28;20394;-67
2023/10/18 07:56:40;;;;;;;10.82;3.88;;;8.60;1.00;;;;;;4992977;28;20514;-67
2023/10/18 08:02:07;;;;;;;9.35;4.05;;;8.80;1.00;;;;;;4982079;28;20395;-67
2023/10/18 08:04:36;;;;;;;11.85;4.90;;;9.10;99.90;;;;;;4975196;28;20408;-67
2023/10/18 08:07:04;;;;;;;9.57;3.90;;;9.40;99.90;;;;;;4984383;28;20381;-67
2023/10/18 08:09:30;;;;;;;13.55;5.25;;;9.90;1.10;;;;;;4992781;28;20835;-68
2023/10/18 08:12:06;;;;;;;12.00;5.70;;;10.40;99.90;;;;;;4992515;28;20457;-67
2023/10/18 08:14:32;;;;;;;12.13;4.55;;;10.60;1.00;;;;;;4992345;28;20442;-68
2023/10/18 08:16:58;;;;;;;10.07;4.03;;;10.80;1.00;;;;;;4992292;28;20397;-67
2023/10/18 08:19:24;;;;;;;9.73;4.53;;;11.00;1.00;;;;;;4991851;28;20410;-68
2023/10/18 08:24:35;;;;;;;11.70;4.40;;;11.60;99.90;;;;;;4992406;28;20402;-68
2023/10/18 08:27:09;;;;;;;10.87;5.30;;;11.90;99.90;;;;;;4991770;28;20406;-67
2023/10/18 08:29:37;;;;;;;9.80;4.37;;;12.30;68.60;;;;;;4991425;28;20391;-67
2023/10/18 08:32:06;;;;;;;10.25;4.22;;;12.70;1.00;;;;;;4992272;28;20403;-68
2023/10/18 08:34:32;;;;;;;13.85;4.85;;;12.70;1.00;;;;;;4992115;28;20441;-67
2023/10/18 08:37:10;;;;;;;11.67;5.47;;;12.80;1.00;;;;;;4991872;28;20933;-67
2023/10/18 08:39:39;;;;;;;10.18;4.82;;;13.10;1.00;;;;;;4990617;28;20430;-68
2023/10/18 08:42:08;;;;;;;9.40;4.50;;;13.20;1.00;;;;;;4989976;28;20410;-68
2023/10/18 08:44:36;;;;;;;12.23;5.47;;;13.80;1.00;;;;;;4991456;28;20948;-68
2023/10/18 08:49:43;;;;;;;15.98;5.78;;;15.70;1.00;;;;;;4991956;28;20387;-68
2023/10/18 08:52:10;;;;;;;11.57;5.97;;;16.60;99.90;;;;;;4988748;28;20409;-68
2023/10/18 08:54:41;;;;;;;12.70;5.63;;;16.90;99.90;;;;;;4990394;28;21456;-68
2023/10/18 08:57:10;;;;;;;13.02;5.60;;;15.90;99.90;;;;;;4990285;28;20457;-69
2023/10/18 08:59:43;;;;;;;12.88;5.90;;;15.60;99.90;;;;;;4991696;28;20468;-67
2023/10/18 09:02:13;;;;;;;11.02;5.40;;;16.10;99.90;;;;;;4991040;28;20383;-68
2023/10/18 09:04:44;;;;;;;10.10;4.80;;;15.90;99.90;;;;;;4991249;28;20807;-67
2023/10/18 09:07:22;;;;;;;10.77;5.25;;;14.90;99.90;;;;;;4991509;28;20398;-67
2023/10/18 09:09:58;;;;;;;14.55;6.43;;;14.60;99.90;;;;;;4991312;28;20485;-67
2023/10/18 09:15:27;;;;;;;12.37;6.00;;;16.40;99.90;;;;;;4989910;28;20512;-68
2023/10/18 09:17:57;;;;;;;14.38;5.72;;;17.10;99.90;;;;;;4981280;28;20461;-68
2023/10/18 09:20:27;;;;;;;15.73;6.00;;;18.10;99.90;;;;;;4988581;28;20505;-68
2023/10/18 09:22:53;;;;;;;13.35;6.53;;;19.10;99.90;;;;;;4988840;28;20906;-68
2023/10/18 09:25:24;;;;;;;13.40;5.80;;;20.40;99.90;;;;;;4988834;28;20421;-68
2023/10/18 09:27:52;;;;;;;12.77;6.47;;;21.50;99.90;;;;;;4988506;28;20406;-68
2023/10/18 09:30:20;;;;;;;11.27;6.07;;;21.90;99.90;;;;;;4990136;28;20867;-68
2023/10/18 09:32:47;;;;;;;14.15;6.70;;;21.60;99.90;;;;;;4987014;28;20738;-68
2023/10/18 09:35:13;;;;;;;15.57;7.57;;;21.10;99.90;;;;;;4990273;28;20410;-68
2023/10/18 09:37:39;;;;;;;13.20;6.78;;;20.60;99.90;;;;;;4987268;28;20410;-68
2023/10/18 09:40:05;;;;;;;11.90;5.88;;;20.80;99.90;;;;;;4987656;28;21010;-68
2023/10/18 09:42:31;;;;;;;15.02;5.38;;;20.80;99.90;;;;;;4988679;28;20818;-69
2023/10/18 09:44:57;;;;;;;13.75;5.55;;;20.10;99.90;;;;;;4989701;28;20402;-68
2023/10/18 09:47:26;;;;;;;13.30;5.70;;;19.80;99.90;;;;;;4990310;28;20382;-68
2023/10/18 09:49:55;;;;;;;11.82;5.60;;;20.30;99.90;;;;;;4990313;28;20403;-67
2023/10/18 09:52:24;;;;;;;10.77;5.32;;;19.90;99.90;;;;;;4990491;28;20453;-67
2023/10/18 09:54:51;;;;;;;11.60;5.10;;;19.30;99.90;;;;;;4989290;28;20402;-69
2023/10/18 09:57:25;;;;;;;11.60;5.00;;;18.90;99.90;;;;;;4986939;28;20481;-66
2023/10/18 09:59:54;;;;;;;10.27;5.15;;;18.40;99.90;;;;;;4988476;28;20910;-68
2023/10/18 10:02:21;;;;;;;11.13;4.88;;;18.50;99.90;;;;;;4985423;28;20495;-67
2023/10/18 10:05:04;;;;;;;11.77;5.30;;;18.90;99.90;;;;;;4982961;28;20386;-67
2023/10/18 10:07:39;;;;;;;12.60;6.20;;;19.20;99.90;;;;;;4976634;28;20777;-71
2023/10/18 10:10:09;;;;;;;13.30;6.20;;;20.20;99.90;;;;;;4988045;28;20446;-72
2023/10/18 10:12:36;;;;;;;12.05;5.63;;;19.40;99.90;;;;;;4988741;28;20490;-72
2023/10/18 10:15:13;;;;;;;12.17;6.07;;;19.20;99.90;;;;;;4989375;28;20422;-72
2023/10/18 10:17:41;;;;;;;13.30;4.70;;;18.90;99.90;;;;;;4988470;28;20520;-72
2023/10/18 10:20:13;;;;;;;12.40;5.10;;;18.20;99.90;;;;;;4987463;28;20504;-72
2023/10/18 10:22:41;;;;;;;12.95;6.38;;;18.40;99.90;;;;;;4989888;28;20481;-72
2023/10/18 10:25:11;;;;;;;12.05;5.40;;;18.50;99.90;;;;;;4990029;28;20443;-72
2023/10/18 10:33:00;;;;;;;12.30;5.20;;;19.10;99.90;;;;;;4984306;28;20414;-72
2023/10/18 10:35:32;;;;;;;10.52;5.15;;;19.00;99.90;;;;;;4987832;28;20441;-67
2023/10/18 10:38:01;;;;;;;11.88;5.07;;;18.30;99.90;;;;;;4988962;28;20721;-67
2023/10/18 10:43:09;;;;;;;11.27;4.80;;;17.20;99.90;;;;;;4986952;28;20482;-67
2023/10/18 10:45:53;;;;;;;10.50;4.57;;;16.80;99.90;;;;;;4986697;28;20767;-68
2023/10/18 10:51:06;;;;;;;12.57;5.22;;;16.50;99.90;;;;;;4986731;28;20776;-67
2023/10/18 10:54:00;;;;;;;12.02;4.55;;;16.90;99.90;;;;;;4993360;28;20421;-67
2023/10/18 10:56:33;;;;;;;10.52;4.80;;;17.40;99.90;;;;;;4990638;28;20390;-67
2023/10/18 11:01:43;;;;;;;11.02;4.47;;;18.30;99.90;;;;;;4992271;28;20827;-68
2023/10/18 11:04:14;;;;;;;10.38;5.05;;;18.80;99.90;;;;;;4992603;28;20402;-67
2023/10/18 11:06:44;;;;;;;12.40;4.47;;;18.60;99.90;;;;;;4992348;28;20510;-67
2023/10/18 11:09:17;;;;;;;11.93;4.30;;;18.30;99.90;;;;;;4980120;28;20404;-67
2023/10/18 11:11:44;;;;;;;11.60;4.53;;;18.00;99.90;;;;;;4990744;28;20573;-67
2023/10/18 11:14:17;;;;;;;12.82;5.18;;;18.00;99.90;;;;;;4992160;28;20501;-67
2023/10/18 11:16:43;;;;;;;11.18;4.60;;;18.00;99.90;;;;;;4987388;28;20426;-68
2023/10/18 11:19:09;;;;;;;8.43;3.25;;;18.00;99.90;;;;;;4983308;28;20428;-68
2023/10/18 11:21:34;;;;;;;12.57;4.80;;;17.60;99.90;;;;;;4981029;28;20454;-68
2023/10/18 11:24:10;;;;;;;8.63;3.80;;;17.30;99.90;;;;;;4986768;28;20387;-67
2023/10/18 11:26:40;;;;;;;10.77;4.32;;;17.10;99.90;;;;;;4982786;28;20413;-67
2023/10/18 11:29:06;;;;;;;10.65;3.42;;;17.00;99.90;;;;;;4992816;28;20391;-67
2023/10/18 11:31:33;;;;;;;10.77;4.72;;;17.00;99.90;;;;;;4993756;28;20394;-67
2023/10/18 11:34:06;;;;;;;8.48;3.90;;;16.70;99.90;;;;;;4993644;28;20456;-67
2023/10/18 11:36:34;;;;;;;10.93;3.83;;;16.70;99.90;;;;;;4993343;28;20492;-68
2023/10/18 11:41:41;;;;;;;7.90;3.08;;;16.40;99.90;;;;;;4992430;28;20418;-67
2023/10/18 11:44:20;;;;;;;10.65;3.92;;;16.30;99.90;;;;;;4992525;28;20410;-68
2023/10/18 11:46:49;;;;;;;11.98;3.88;;;16.20;99.90;;;;;;4992812;28;20394;-67
2023/10/18 11:49:19;;;;;;;10.83;3.80;;;16.10;99.90;;;;;;4988724;28;20510;-67
2023/10/18 11:51:48;;;;;;;8.35;3.13;;;16.20;99.90;;;;;;4984976;28;20780;-67
2023/10/18 11:54:34;;;;;;;16.30;4.45;;;16.10;99.90;;;;;;4981192;28;20474;-67
2023/10/18 11:57:07;;;;;;;8.98;3.90;;;16.40;99.90;;;;;;4989470;28;20406;-67
2023/10/18 11:59:53;;;;;;;9.55;3.58;;;16.40;99.90;;;;;;4990982;28;20426;-67
2023/10/18 12:02:19;;;;;;;10.27;4.37;;;16.50;99.90;;;;;;4987670;28;20398;-67
2023/10/18 12:04:48;;;;;;;10.43;3.80;;;16.50;99.90;;;;;;4992346;28;20967;-67
2023/10/18 12:07:14;;;;;;;7.65;3.33;;;16.50;99.90;;;;;;4991766;28;20398;-67
2023/10/18 12:09:51;;;;;;;12.35;4.60;;;16.40;99.90;;;;;;4990430;28;20410;-67
2023/10/18 12:12:19;;;;;;;10.53;3.50;;;16.40;99.90;;;;;;4990543;28;20441;-67
2023/10/18 12:14:46;;;;;;;9.93;3.30;;;16.40;99.90;;;;;;4989303;28;20794;-67
2023/10/18 12:17:13;;;;;;;8.50;3.70;;;16.30;99.90;;;;;;4991571;28;20397;-67
2023/10/18 12:19:39;;;;;;;8.60;2.83;;;16.30;99.90;;;;;;4992199;28;20449;-67
2023/10/18 12:22:05;;;;;;;7.90;3.30;;;16.10;99.90;;;;;;4991127;28;20394;-66
2023/10/18 12:24:33;;;;;;;10.38;3.92;;;16.10;99.90;;;;;;4992855;28;20409;-67
2023/10/18 12:27:18;;;;;;;8.40;3.53;;;15.90;99.90;;;;;;4992360;28;20398;-67
2023/10/18 12:29:44;;;;;;;7.57;3.33;;;16.00;99.90;;;;;;4991910;28;20405;-67
2023/10/18 12:34:56;;;;;;;8.57;3.20;;;16.30;99.90;;;;;;4992208;28;20398;-67
2023/10/18 12:37:23;;;;;;;7.88;3.20;;;16.60;99.90;;;;;;4992007;28;20403;-67
2023/10/18 12:39:49;;;;;;;10.05;3.40;;;16.80;99.90;;;;;;4992050;28;20422;-67
2023/10/18 12:42:19;;;;;;;6.45;2.85;;;17.00;99.90;;;;;;4992172;28;20794;-67
2023/10/18 12:44:48;;;;;;;8.25;2.78;;;17.10;99.90;;;;;;4989236;28;20395;-67
2023/10/18 12:47:19;;;;;;;8.40;2.97;;;17.00;99.90;;;;;;4991886;28;20394;-66
2023/10/18 12:49:50;;;;;;;7.47;2.85;;;17.00;99.90;;;;;;4990037;28;20406;-66
2023/10/18 12:55:29;;;;;;;8.87;3.30;;;16.90;99.90;;;;;;4991309;28;20474;-67
2023/10/18 12:57:51;;;;;;;6.78;2.75;;;16.90;99.90;;;;;;4983520;28;20496;-67
2023/10/18 13:00:16;;;;;;;7.57;2.90;;;16.90;99.90;;;;;;4991298;28;20446;-68
2023/10/18 13:05:21;;;;;;;8.30;3.07;;;17.10;99.90;;;;;;4973266;28;20489;-68
2023/10/18 13:07:52;;;;;;;8.80;3.00;;;17.20;99.90;;;;;;4990612;28;20398;-67
2023/10/18 13:10:29;;;;;;;8.00;2.78;;;17.20;99.90;;;;;;4991070;28;20410;-67
2023/10/18 13:12:54;;;;;;;7.93;2.53;;;17.30;99.90;;;;;;4990651;28;20522;-67
2023/10/18 13:15:23;;;;;;;13.10;3.17;;;17.20;99.90;;;;;;4990006;28;20879;-68
2023/10/18 13:17:51;;;;;;;8.23;2.67;;;17.20;99.90;;;;;;4991368;28;20387;-67
2023/10/18 13:20:16;;;;;;;7.38;2.53;;;17.20;99.90;;;;;;4992168;28;20466;-68
2023/10/18 13:22:42;;;;;;;7.07;2.73;;;17.40;99.90;;;;;;4991622;28;20838;-67
2023/10/18 13:25:09;;;;;;;6.00;1.92;;;17.50;99.90;;;;;;4990704;28;20497;-68
2023/10/18 13:27:40;;;;;;;6.30;2.22;;;17.50;99.90;;;;;;4992736;28;20413;-67
2023/10/18 13:30:31;;;;;;;8.38;2.75;;;17.40;99.90;;;;;;4991811;28;20402;-68
2023/10/18 13:32:52;;;;;;;7.83;2.40;;;17.40;99.90;;;;;;4991491;28;20419;-67
2023/10/18 13:35:17;;;;;;;7.40;2.42;;;17.20;99.90;;;;;;4990412;28;20487;-67
2023/10/18 13:37:44;;;;;;;6.95;2.25;;;17.10;99.90;;;;;;5006622;28;20411;-67
2023/10/18 13:40:18;;;;;;;6.70;2.43;;;17.10;99.90;;;;;;4992026;28;20421;-68
2023/10/18 13:42:45;;;;;;;6.57;2.25;;;17.10;99.90;;;;;;4991464;28;20468;-67
2023/10/18 13:45:14;;;;;;;6.20;2.20;;;17.20;99.90;;;;;;4992251;28;20921;-67
2023/10/18 13:47:39;;;;;;;5.95;2.33;;;17.40;99.90;;;;;;4991782;28;20397;-68
2023/10/18 13:50:09;;;;;;;6.67;1.80;;;17.50;99.90;;;;;;4991447;28;20390;-68
2023/10/18 13:52:36;;;;;;;5.93;2.05;;;17.60;99.90;;;;;;4991374;28;20398;-67
2023/10/18 13:55:02;;;;;;;5.95;2.05;;;17.60;99.90;;;;;;5006876;28;20921;-67
2023/10/18 13:57:28;;;;;;;6.72;2.03;;;17.60;99.90;;;;;;4991624;28;20406;-67
2023/10/18 13:59:54;;;;;;;7.93;2.63;;;17.70;99.90;;;;;;4990176;28;20418;-67
2023/10/18 14:02:26;;;;;;;8.52;2.85;;;17.70;99.90;;;;;;4979227;28;20411;-68
2023/10/18 14:04:52;;;;;;;8.48;2.95;;;17.50;99.90;;;;;;4977756;28;20437;-68
2023/10/18 14:07:18;;;;;;;19.38;2.63;;;17.40;99.90;;;;;;4989141;28;20410;-67
2023/10/18 14:09:44;;;;;;;8.20;2.95;;;17.40;99.90;;;;;;4989554;28;20800;-68
2023/10/18 14:12:10;;;;;;;8.57;2.80;;;17.20;99.90;;;;;;4984510;28;20482;-67
2023/10/18 14:14:36;;;;;;;7.10;2.80;;;17.20;99.90;;;;;;4980687;28;20917;-68